sensor_id;sensor_type;location;lat;lon;timestamp;P1;durP1;ratioP1;P2;durP2;ratioP2
67344;SDS011;54230;52.402;6.276;2022-11-27T00:00:00;16.5;;;6.4;;
67344;SDS011;54230;52.402;6.276;2022-11-27T00:05:00;15.9;;;6.4;;
67344;SDS011;54230;52.402;6.276;2022-11-27T00:10:00;16.7;;;6.0;;
67344;SDS011;54230;52.402;6.276;2022-11-27T00:15:00;17.4;;;6.2;;
67344;SDS011;54230;52.402;6.276;2022-11-27T00:20:00;17.4;;;6.3;;
67344;SDS011;54230;52.402;6.276;2022-11-27T00:25:00;18.3;;;6.5;;
67344;SDS011;54230;52.402;6.276;2022-11-27T00:30:00;17.3;;;6.0;;
67344;SDS011;54230;52.402;6.276;2022-11-27T00:35:00;18.5;;;6.4;;
67344;SDS011;54230;52.402;6.276;2022-11-27T00:40:00;14.6;;;5.9;;
67344;SDS011;54230;52.402;6.276;2022-11-27T00:45:00;16.5;;;6.1;;
67344;SDS011;54230;52.402;6.276;2022-11-27T00:50:00;16.7;;;5.8;;
67344;SDS011;54230;52.402;6.276;2022-11-27T00:55:00;19.7;;;6.2;;
67344;SDS011;54230;52.402;6.276;2022-11-27T01:00:00;16.9;;;6.1;;
67344;SDS011;54230;52.402;6.276;2022-11-27T01:05:00;15.8;;;5.8;;
67344;SDS011;54230;52.402;6.276;2022-11-27T01:10:00;18.4;;;6.4;;
67344;SDS011;54230;52.402;6.276;2022-11-27T01:15:00;16.9;;;6.5;;
67344;SDS011;54230;52.402;6.276;2022-11-27T01:20:00;17.2;;;6.6;;
67344;SDS011;54230;52.402;6.276;2022-11-27T01:25:00;16.5;;;6.5;;
67344;SDS011;54230;52.402;6.276;2022-11-27T01:30:00;18.0;;;6.5;;
67344;SDS011;54230;52.402;6.276;2022-11-27T01:35:00;17.3;;;6.7;;
67344;SDS011;54230;52.402;6.276;2022-11-27T01:40:00;18.3;;;6.9;;
67344;SDS011;54230;52.402;6.276;2022-11-27T01:45:00;18.0;;;6.7;;
67344;SDS011;54230;52.402;6.276;2022-11-27T01:50:03;18.5;;;6.8;;
67344;SDS011;54230;52.402;6.276;2022-11-27T01:55:00;19.0;;;7.3;;
67344;SDS011;54230;52.402;6.276;2022-11-27T02:00:00;18.0;;;6.9;;
67344;SDS011;54230;52.402;6.276;2022-11-27T02:05:00;21.7;;;6.9;;
67344;SDS011;54230;52.402;6.276;2022-11-27T02:10:00;19.2;;;6.9;;
67344;SDS011;54230;52.402;6.276;2022-11-27T02:15:02;16.7;;;6.3;;
67344;SDS011;54230;52.402;6.276;2022-11-27T02:20:12;18.1;;;6.9;;
67344;SDS011;54230;52.402;6.276;2022-11-27T02:25:01;21.1;;;7.0;;
67344;SDS011;54230;52.402;6.276;2022-11-27T02:30:00;18.5;;;6.9;;
67344;SDS011;54230;52.402;6.276;2022-11-27T02:35:00;20.1;;;6.7;;
67344;SDS011;54230;52.402;6.276;2022-11-27T02:40:00;19.2;;;6.7;;
67344;SDS011;54230;52.402;6.276;2022-11-27T02:45:00;15.9;;;5.9;;
67344;SDS011;54230;52.402;6.276;2022-11-27T02:50:00;19.7;;;6.2;;
67344;SDS011;54230;52.402;6.276;2022-11-27T02:55:00;16.5;;;6.4;;
67344;SDS011;54230;52.402;6.276;2022-11-27T03:00:00;17.0;;;6.2;;
67344;SDS011;54230;52.402;6.276;2022-11-27T03:05:00;17.0;;;5.8;;
67344;SDS011;54230;52.402;6.276;2022-11-27T03:10:01;18.7;;;6.1;;
67344;SDS011;54230;52.402;6.276;2022-11-27T03:15:00;16.9;;;5.8;;
67344;SDS011;54230;52.402;6.276;2022-11-27T03:20:02;14.5;;;5.2;;
67344;SDS011;54230;52.402;6.276;2022-11-27T03:25:00;16.4;;;5.4;;
67344;SDS011;54230;52.402;6.276;2022-11-27T03:30:00;17.1;;;4.9;;
67344;SDS011;54230;52.402;6.276;2022-11-27T03:35:00;15.9;;;5.1;;
67344;SDS011;54230;52.402;6.276;2022-11-27T03:40:00;14.8;;;4.8;;
67344;SDS011;54230;52.402;6.276;2022-11-27T03:45:00;14.0;;;4.6;;
67344;SDS011;54230;52.402;6.276;2022-11-27T03:50:04;15.7;;;4.8;;
67344;SDS011;54230;52.402;6.276;2022-11-27T03:55:00;18.0;;;4.7;;
67344;SDS011;54230;52.402;6.276;2022-11-27T04:00:00;16.4;;;4.4;;
67344;SDS011;54230;52.402;6.276;2022-11-27T04:05:00;17.6;;;4.7;;
67344;SDS011;54230;52.402;6.276;2022-11-27T04:10:00;18.9;;;4.6;;
67344;SDS011;54230;52.402;6.276;2022-11-27T04:15:00;13.5;;;4.1;;
67344;SDS011;54230;52.402;6.276;2022-11-27T04:20:00;16.5;;;4.7;;
67344;SDS011;54230;52.402;6.276;2022-11-27T04:25:00;14.6;;;4.4;;
67344;SDS011;54230;52.402;6.276;2022-11-27T04:30:00;13.0;;;4.2;;
67344;SDS011;54230;52.402;6.276;2022-11-27T04:35:00;15.1;;;4.5;;
67344;SDS011;54230;52.402;6.276;2022-11-27T04:40:00;13.5;;;4.2;;
67344;SDS011;54230;52.402;6.276;2022-11-27T04:45:00;11.8;;;3.9;;
67344;SDS011;54230;52.402;6.276;2022-11-27T04:50:00;14.5;;;3.8;;
67344;SDS011;54230;52.402;6.276;2022-11-27T04:55:00;12.4;;;4.1;;
67344;SDS011;54230;52.402;6.276;2022-11-27T05:00:00;16.3;;;4.6;;
67344;SDS011;54230;52.402;6.276;2022-11-27T05:05:00;14.6;;;4.3;;
67344;SDS011;54230;52.402;6.276;2022-11-27T05:10:00;13.9;;;4.3;;
67344;SDS011;54230;52.402;6.276;2022-11-27T05:15:00;12.1;;;4.0;;
67344;SDS011;54230;52.402;6.276;2022-11-27T05:20:00;11.1;;;4.0;;
67344;SDS011;54230;52.402;6.276;2022-11-27T05:25:00;14.3;;;4.3;;
67344;SDS011;54230;52.402;6.276;2022-11-27T05:30:00;12.4;;;4.1;;
67344;SDS011;54230;52.402;6.276;2022-11-27T05:35:00;13.6;;;4.1;;
67344;SDS011;54230;52.402;6.276;2022-11-27T05:40:00;10.8;;;4.4;;
67344;SDS011;54230;52.402;6.276;2022-11-27T05:45:00;13.2;;;4.5;;
67344;SDS011;54230;52.402;6.276;2022-11-27T05:50:00;11.4;;;4.7;;
67344;SDS011;54230;52.402;6.276;2022-11-27T05:55:00;12.3;;;4.6;;
67344;SDS011;54230;52.402;6.276;2022-11-27T06:00:00;13.1;;;4.5;;
67344;SDS011;54230;52.402;6.276;2022-11-27T06:05:00;15.0;;;4.6;;
67344;SDS011;54230;52.402;6.276;2022-11-27T06:10:00;12.5;;;4.7;;
67344;SDS011;54230;52.402;6.276;2022-11-27T06:15:00;15.9;;;4.7;;
67344;SDS011;54230;52.402;6.276;2022-11-27T06:20:00;14.4;;;5.2;;
67344;SDS011;54230;52.402;6.276;2022-11-27T06:25:00;13.2;;;4.8;;
67344;SDS011;54230;52.402;6.276;2022-11-27T06:30:00;14.6;;;4.9;;
67344;SDS011;54230;52.402;6.276;2022-11-27T06:35:00;15.4;;;4.9;;
67344;SDS011;54230;52.402;6.276;2022-11-27T06:40:00;16.0;;;5.5;;
67344;SDS011;54230;52.402;6.276;2022-11-27T06:45:00;14.2;;;5.5;;
67344;SDS011;54230;52.402;6.276;2022-11-27T06:50:00;15.1;;;5.5;;
67344;SDS011;54230;52.402;6.276;2022-11-27T06:55:00;16.0;;;5.6;;
67344;SDS011;54230;52.402;6.276;2022-11-27T07:00:00;16.2;;;5.6;;
67344;SDS011;54230;52.402;6.276;2022-11-27T07:05:00;15.4;;;5.4;;
67344;SDS011;54230;52.402;6.276;2022-11-27T07:10:00;15.2;;;5.4;;
67344;SDS011;54230;52.402;6.276;2022-11-27T07:15:00;14.4;;;5.2;;
67344;SDS011;54230;52.402;6.276;2022-11-27T07:20:00;15.6;;;5.7;;
67344;SDS011;54230;52.402;6.276;2022-11-27T07:25:00;15.7;;;5.9;;
67344;SDS011;54230;52.402;6.276;2022-11-27T07:30:00;15.2;;;5.6;;
67344;SDS011;54230;52.402;6.276;2022-11-27T07:35:00;15.0;;;5.3;;
67344;SDS011;54230;52.402;6.276;2022-11-27T07:40:00;17.2;;;6.2;;
67344;SDS011;54230;52.402;6.276;2022-11-27T07:45:00;14.7;;;5.9;;
67344;SDS011;54230;52.402;6.276;2022-11-27T07:50:00;14.6;;;6.0;;
67344;SDS011;54230;52.402;6.276;2022-11-27T07:55:00;17.4;;;6.2;;
67344;SDS011;54230;52.402;6.276;2022-11-27T08:00:00;15.3;;;6.2;;
67344;SDS011;54230;52.402;6.276;2022-11-27T08:05:00;15.6;;;6.7;;
67344;SDS011;54230;52.402;6.276;2022-11-27T08:10:00;17.6;;;6.3;;
67344;SDS011;54230;52.402;6.276;2022-11-27T08:15:00;16.6;;;6.3;;
67344;SDS011;54230;52.402;6.276;2022-11-27T08:20:00;16.7;;;6.1;;
67344;SDS011;54230;52.402;6.276;2022-11-27T08:25:00;14.3;;;6.3;;
67344;SDS011;54230;52.402;6.276;2022-11-27T08:30:00;14.6;;;5.9;;
67344;SDS011;54230;52.402;6.276;2022-11-27T08:35:00;18.3;;;6.3;;
67344;SDS011;54230;52.402;6.276;2022-11-27T08:40:00;16.9;;;6.6;;
67344;SDS011;54230;52.402;6.276;2022-11-27T08:45:00;17.0;;;6.4;;
67344;SDS011;54230;52.402;6.276;2022-11-27T08:50:00;18.9;;;6.4;;
67344;SDS011;54230;52.402;6.276;2022-11-27T08:55:00;15.5;;;6.4;;
67344;SDS011;54230;52.402;6.276;2022-11-27T09:00:00;16.1;;;6.6;;
67344;SDS011;54230;52.402;6.276;2022-11-27T09:05:00;18.8;;;6.7;;
67344;SDS011;54230;52.402;6.276;2022-11-27T09:10:00;17.3;;;6.3;;
67344;SDS011;54230;52.402;6.276;2022-11-27T09:15:00;17.4;;;6.7;;
67344;SDS011;54230;52.402;6.276;2022-11-27T09:20:00;18.5;;;7.0;;
67344;SDS011;54230;52.402;6.276;2022-11-27T09:25:00;17.7;;;6.7;;
67344;SDS011;54230;52.402;6.276;2022-11-27T09:30:00;17.9;;;6.9;;
67344;SDS011;54230;52.402;6.276;2022-11-27T09:35:00;21.7;;;6.8;;
67344;SDS011;54230;52.402;6.276;2022-11-27T09:40:00;18.4;;;7.1;;
67344;SDS011;54230;52.402;6.276;2022-11-27T09:45:00;20.8;;;7.5;;
67344;SDS011;54230;52.402;6.276;2022-11-27T09:50:00;16.0;;;6.7;;
67344;SDS011;54230;52.402;6.276;2022-11-27T09:55:00;20.4;;;7.2;;
67344;SDS011;54230;52.402;6.276;2022-11-27T10:00:01;17.6;;;6.9;;
67344;SDS011;54230;52.402;6.276;2022-11-27T10:05:02;19.7;;;6.9;;
67344;SDS011;54230;52.402;6.276;2022-11-27T10:10:02;17.2;;;6.5;;
67344;SDS011;54230;52.402;6.276;2022-11-27T10:15:02;18.2;;;7.0;;
67344;SDS011;54230;52.402;6.276;2022-11-27T10:20:02;18.9;;;6.6;;
67344;SDS011;54230;52.402;6.276;2022-11-27T10:25:01;15.6;;;6.5;;
67344;SDS011;54230;52.402;6.276;2022-11-27T10:30:00;16.3;;;6.9;;
67344;SDS011;54230;52.402;6.276;2022-11-27T10:35:00;14.4;;;6.7;;
67344;SDS011;54230;52.402;6.276;2022-11-27T10:40:01;16.6;;;6.8;;
67344;SDS011;54230;52.402;6.276;2022-11-27T10:45:00;14.6;;;6.4;;
67344;SDS011;54230;52.402;6.276;2022-11-27T10:50:00;15.5;;;6.5;;
67344;SDS011;54230;52.402;6.276;2022-11-27T10:55:01;16.7;;;6.5;;
67344;SDS011;54230;52.402;6.276;2022-11-27T11:00:03;15.9;;;7.0;;
67344;SDS011;54230;52.402;6.276;2022-11-27T11:05:09;15.9;;;6.5;;
67344;SDS011;54230;52.402;6.276;2022-11-27T11:10:00;17.9;;;7.2;;
67344;SDS011;54230;52.402;6.276;2022-11-27T11:15:00;15.7;;;6.3;;
67344;SDS011;54230;52.402;6.276;2022-11-27T11:20:00;16.5;;;7.0;;
67344;SDS011;54230;52.402;6.276;2022-11-27T11:25:00;15.0;;;6.4;;
67344;SDS011;54230;52.402;6.276;2022-11-27T11:30:00;16.1;;;6.5;;
67344;SDS011;54230;52.402;6.276;2022-11-27T11:35:00;15.3;;;6.3;;
67344;SDS011;54230;52.402;6.276;2022-11-27T11:40:00;15.9;;;6.8;;
67344;SDS011;54230;52.402;6.276;2022-11-27T11:45:01;15.3;;;6.2;;
67344;SDS011;54230;52.402;6.276;2022-11-27T11:50:00;14.7;;;6.0;;
67344;SDS011;54230;52.402;6.276;2022-11-27T11:55:01;18.6;;;6.7;;
67344;SDS011;54230;52.402;6.276;2022-11-27T12:00:01;14.4;;;6.7;;
67344;SDS011;54230;52.402;6.276;2022-11-27T12:05:10;16.0;;;6.5;;
67344;SDS011;54230;52.402;6.276;2022-11-27T12:10:01;16.0;;;6.8;;
67344;SDS011;54230;52.402;6.276;2022-11-27T12:15:01;16.6;;;6.4;;
67344;SDS011;54230;52.402;6.276;2022-11-27T12:25:01;14.6;;;6.3;;
67344;SDS011;54230;52.402;6.276;2022-11-27T12:30:09;15.0;;;6.1;;
67344;SDS011;54230;52.402;6.276;2022-11-27T12:35:04;13.7;;;6.0;;
67344;SDS011;54230;52.402;6.276;2022-11-27T12:40:02;15.4;;;6.4;;
67344;SDS011;54230;52.402;6.276;2022-11-27T12:45:01;18.2;;;7.0;;
67344;SDS011;54230;52.402;6.276;2022-11-27T12:50:01;14.4;;;6.4;;
67344;SDS011;54230;52.402;6.276;2022-11-27T12:55:00;13.3;;;6.5;;
67344;SDS011;54230;52.402;6.276;2022-11-27T13:00:00;14.6;;;6.3;;
67344;SDS011;54230;52.402;6.276;2022-11-27T13:05:01;16.8;;;6.4;;
67344;SDS011;54230;52.402;6.276;2022-11-27T13:10:02;15.0;;;6.6;;
67344;SDS011;54230;52.402;6.276;2022-11-27T13:15:00;14.2;;;6.3;;
67344;SDS011;54230;52.402;6.276;2022-11-27T13:20:00;13.0;;;6.2;;
67344;SDS011;54230;52.402;6.276;2022-11-27T13:25:00;15.2;;;6.3;;
67344;SDS011;54230;52.402;6.276;2022-11-27T13:30:00;16.1;;;6.0;;
67344;SDS011;54230;52.402;6.276;2022-11-27T13:35:01;16.3;;;6.0;;
67344;SDS011;54230;52.402;6.276;2022-11-27T13:40:00;12.3;;;5.7;;
67344;SDS011;54230;52.402;6.276;2022-11-27T13:45:00;14.6;;;6.0;;
67344;SDS011;54230;52.402;6.276;2022-11-27T13:50:01;12.9;;;5.9;;
67344;SDS011;54230;52.402;6.276;2022-11-27T13:55:00;14.1;;;6.4;;
67344;SDS011;54230;52.402;6.276;2022-11-27T14:00:00;13.5;;;5.8;;
67344;SDS011;54230;52.402;6.276;2022-11-27T14:05:00;15.9;;;5.9;;
67344;SDS011;54230;52.402;6.276;2022-11-27T14:10:04;11.6;;;5.5;;
67344;SDS011;54230;52.402;6.276;2022-11-27T14:15:01;12.9;;;5.4;;
67344;SDS011;54230;52.402;6.276;2022-11-27T14:20:02;12.7;;;5.6;;
67344;SDS011;54230;52.402;6.276;2022-11-27T14:25:01;11.4;;;5.7;;
67344;SDS011;54230;52.402;6.276;2022-11-27T14:30:10;11.8;;;5.6;;
67344;SDS011;54230;52.402;6.276;2022-11-27T14:35:00;11.5;;;5.3;;
67344;SDS011;54230;52.402;6.276;2022-11-27T14:40:00;11.0;;;5.4;;
67344;SDS011;54230;52.402;6.276;2022-11-27T14:45:00;12.2;;;5.6;;
67344;SDS011;54230;52.402;6.276;2022-11-27T14:50:00;12.7;;;5.7;;
67344;SDS011;54230;52.402;6.276;2022-11-27T14:55:00;12.2;;;5.4;;
67344;SDS011;54230;52.402;6.276;2022-11-27T15:00:00;13.9;;;5.4;;
67344;SDS011;54230;52.402;6.276;2022-11-27T15:05:00;11.1;;;5.6;;
67344;SDS011;54230;52.402;6.276;2022-11-27T15:10:01;12.0;;;5.7;;
67344;SDS011;54230;52.402;6.276;2022-11-27T15:15:00;11.5;;;5.7;;
67344;SDS011;54230;52.402;6.276;2022-11-27T15:20:00;11.8;;;5.7;;
67344;SDS011;54230;52.402;6.276;2022-11-27T15:25:00;10.4;;;5.5;;
67344;SDS011;54230;52.402;6.276;2022-11-27T15:30:01;12.3;;;6.0;;
67344;SDS011;54230;52.402;6.276;2022-11-27T15:35:10;13.6;;;6.4;;
67344;SDS011;54230;52.402;6.276;2022-11-27T15:40:00;13.4;;;6.2;;
67344;SDS011;54230;52.402;6.276;2022-11-27T15:45:00;12.3;;;5.8;;
67344;SDS011;54230;52.402;6.276;2022-11-27T15:50:00;11.7;;;6.4;;
67344;SDS011;54230;52.402;6.276;2022-11-27T15:55:00;14.3;;;6.3;;
67344;SDS011;54230;52.402;6.276;2022-11-27T16:00:00;12.8;;;6.1;;
67344;SDS011;54230;52.402;6.276;2022-11-27T16:05:00;14.2;;;6.2;;
67344;SDS011;54230;52.402;6.276;2022-11-27T16:10:00;15.7;;;6.2;;
67344;SDS011;54230;52.402;6.276;2022-11-27T16:15:00;12.2;;;6.4;;
67344;SDS011;54230;52.402;6.276;2022-11-27T16:20:00;16.4;;;6.5;;
67344;SDS011;54230;52.402;6.276;2022-11-27T16:25:00;11.7;;;6.0;;
67344;SDS011;54230;52.402;6.276;2022-11-27T16:30:00;13.7;;;6.6;;
67344;SDS011;54230;52.402;6.276;2022-11-27T16:35:00;13.9;;;6.7;;
67344;SDS011;54230;52.402;6.276;2022-11-27T16:40:00;14.3;;;6.7;;
67344;SDS011;54230;52.402;6.276;2022-11-27T16:45:00;15.1;;;6.8;;
67344;SDS011;54230;52.402;6.276;2022-11-27T16:50:00;13.2;;;6.6;;
67344;SDS011;54230;52.402;6.276;2022-11-27T16:55:00;12.3;;;6.4;;
67344;SDS011;54230;52.402;6.276;2022-11-27T17:00:00;14.5;;;7.0;;
67344;SDS011;54230;52.402;6.276;2022-11-27T17:05:00;14.9;;;6.9;;
67344;SDS011;54230;52.402;6.276;2022-11-27T17:10:00;13.5;;;6.6;;
67344;SDS011;54230;52.402;6.276;2022-11-27T17:15:00;13.8;;;7.1;;
67344;SDS011;54230;52.402;6.276;2022-11-27T17:20:00;14.9;;;6.6;;
67344;SDS011;54230;52.402;6.276;2022-11-27T17:25:00;12.6;;;6.7;;
67344;SDS011;54230;52.402;6.276;2022-11-27T17:30:00;13.4;;;6.5;;
67344;SDS011;54230;52.402;6.276;2022-11-27T17:35:00;13.2;;;6.2;;
67344;SDS011;54230;52.402;6.276;2022-11-27T17:40:00;12.5;;;6.2;;
67344;SDS011;54230;52.402;6.276;2022-11-27T17:45:00;11.4;;;6.1;;
67344;SDS011;54230;52.402;6.276;2022-11-27T17:50:00;12.8;;;6.1;;
67344;SDS011;54230;52.402;6.276;2022-11-27T17:55:00;12.3;;;6.2;;
67344;SDS011;54230;52.402;6.276;2022-11-27T18:00:00;11.1;;;5.6;;
67344;SDS011;54230;52.402;6.276;2022-11-27T18:05:00;12.0;;;6.1;;
67344;SDS011;54230;52.402;6.276;2022-11-27T18:10:00;12.0;;;5.8;;
67344;SDS011;54230;52.402;6.276;2022-11-27T18:15:00;11.4;;;6.3;;
67344;SDS011;54230;52.402;6.276;2022-11-27T18:20:00;13.3;;;6.3;;
67344;SDS011;54230;52.402;6.276;2022-11-27T18:25:00;14.3;;;6.2;;
67344;SDS011;54230;52.402;6.276;2022-11-27T18:30:00;11.9;;;6.4;;
67344;SDS011;54230;52.402;6.276;2022-11-27T18:35:00;11.2;;;5.7;;
67344;SDS011;54230;52.402;6.276;2022-11-27T18:40:00;12.7;;;6.0;;
67344;SDS011;54230;52.402;6.276;2022-11-27T18:45:00;13.1;;;5.9;;
67344;SDS011;54230;52.402;6.276;2022-11-27T18:50:00;12.6;;;6.3;;
67344;SDS011;54230;52.402;6.276;2022-11-27T18:55:00;14.4;;;6.9;;
67344;SDS011;54230;52.402;6.276;2022-11-27T19:00:00;12.9;;;6.5;;
67344;SDS011;54230;52.402;6.276;2022-11-27T19:05:00;13.6;;;6.2;;
67344;SDS011;54230;52.402;6.276;2022-11-27T19:10:00;10.4;;;6.1;;
67344;SDS011;54230;52.402;6.276;2022-11-27T19:15:00;13.8;;;6.2;;
67344;SDS011;54230;52.402;6.276;2022-11-27T19:20:00;11.4;;;6.0;;
67344;SDS011;54230;52.402;6.276;2022-11-27T19:25:00;11.5;;;6.1;;
67344;SDS011;54230;52.402;6.276;2022-11-27T19:30:00;11.7;;;5.9;;
67344;SDS011;54230;52.402;6.276;2022-11-27T19:35:00;12.3;;;6.2;;
67344;SDS011;54230;52.402;6.276;2022-11-27T19:40:00;11.6;;;6.1;;
67344;SDS011;54230;52.402;6.276;2022-11-27T19:45:00;11.4;;;6.3;;
67344;SDS011;54230;52.402;6.276;2022-11-27T19:50:00;14.5;;;6.9;;
67344;SDS011;54230;52.402;6.276;2022-11-27T19:55:00;12.4;;;7.0;;
67344;SDS011;54230;52.402;6.276;2022-11-27T20:00:00;14.6;;;7.2;;
67344;SDS011;54230;52.402;6.276;2022-11-27T20:05:00;15.1;;;7.5;;
67344;SDS011;54230;52.402;6.276;2022-11-27T20:10:00;14.1;;;7.4;;
67344;SDS011;54230;52.402;6.276;2022-11-27T20:15:00;12.4;;;7.0;;
67344;SDS011;54230;52.402;6.276;2022-11-27T20:20:00;14.3;;;7.5;;
67344;SDS011;54230;52.402;6.276;2022-11-27T20:25:00;13.5;;;6.8;;
67344;SDS011;54230;52.402;6.276;2022-11-27T20:30:00;12.8;;;6.9;;
67344;SDS011;54230;52.402;6.276;2022-11-27T20:35:00;13.4;;;7.1;;
67344;SDS011;54230;52.402;6.276;2022-11-27T20:40:00;13.4;;;7.1;;
67344;SDS011;54230;52.402;6.276;2022-11-27T20:45:00;13.4;;;7.1;;
67344;SDS011;54230;52.402;6.276;2022-11-27T20:50:00;12.7;;;6.8;;
67344;SDS011;54230;52.402;6.276;2022-11-27T20:55:00;12.7;;;7.3;;
67344;SDS011;54230;52.402;6.276;2022-11-27T21:00:00;13.8;;;7.1;;
67344;SDS011;54230;52.402;6.276;2022-11-27T21:05:00;14.8;;;7.4;;
67344;SDS011;54230;52.402;6.276;2022-11-27T21:10:00;13.8;;;7.2;;
67344;SDS011;54230;52.402;6.276;2022-11-27T21:15:00;14.4;;;7.4;;
67344;SDS011;54230;52.402;6.276;2022-11-27T21:20:00;13.8;;;7.6;;
67344;SDS011;54230;52.402;6.276;2022-11-27T21:25:00;13.7;;;7.7;;
67344;SDS011;54230;52.402;6.276;2022-11-27T21:30:00;16.2;;;7.2;;
67344;SDS011;54230;52.402;6.276;2022-11-27T21:35:00;13.7;;;7.8;;
67344;SDS011;54230;52.402;6.276;2022-11-27T21:40:00;16.2;;;7.5;;
67344;SDS011;54230;52.402;6.276;2022-11-27T21:45:00;13.5;;;7.4;;
67344;SDS011;54230;52.402;6.276;2022-11-27T21:50:00;14.3;;;7.4;;
67344;SDS011;54230;52.402;6.276;2022-11-27T21:55:00;14.1;;;7.3;;
67344;SDS011;54230;52.402;6.276;2022-11-27T22:00:00;14.2;;;7.5;;
67344;SDS011;54230;52.402;6.276;2022-11-27T22:05:00;14.4;;;7.5;;
67344;SDS011;54230;52.402;6.276;2022-11-27T22:10:00;13.9;;;7.6;;
67344;SDS011;54230;52.402;6.276;2022-11-27T22:15:00;14.9;;;7.6;;
67344;SDS011;54230;52.402;6.276;2022-11-27T22:20:00;15.4;;;7.7;;
67344;SDS011;54230;52.402;6.276;2022-11-27T22:25:00;15.3;;;8.1;;
67344;SDS011;54230;52.402;6.276;2022-11-27T22:30:00;15.3;;;7.8;;
67344;SDS011;54230;52.402;6.276;2022-11-27T22:35:00;15.1;;;7.7;;
67344;SDS011;54230;52.402;6.276;2022-11-27T22:40:00;17.1;;;7.6;;
67344;SDS011;54230;52.402;6.276;2022-11-27T22:45:00;13.8;;;7.3;;
67344;SDS011;54230;52.402;6.276;2022-11-27T22:50:00;13.5;;;6.7;;
67344;SDS011;54230;52.402;6.276;2022-11-27T22:55:00;12.8;;;6.4;;
67344;SDS011;54230;52.402;6.276;2022-11-27T23:00:00;11.5;;;6.4;;
67344;SDS011;54230;52.402;6.276;2022-11-27T23:05:00;12.0;;;6.4;;
67344;SDS011;54230;52.402;6.276;2022-11-27T23:10:00;11.4;;;6.6;;
67344;SDS011;54230;52.402;6.276;2022-11-27T23:15:00;12.4;;;6.4;;
67344;SDS011;54230;52.402;6.276;2022-11-27T23:20:00;12.6;;;6.3;;
67344;SDS011;54230;52.402;6.276;2022-11-27T23:25:00;11.1;;;6.1;;
67344;SDS011;54230;52.402;6.276;2022-11-27T23:30:00;13.7;;;6.5;;
67344;SDS011;54230;52.402;6.276;2022-11-27T23:35:00;13.3;;;6.2;;
67344;SDS011;54230;52.402;6.276;2022-11-27T23:40:00;10.3;;;6.4;;
67344;SDS011;54230;52.402;6.276;2022-11-27T23:45:00;12.0;;;6.7;;
67344;SDS011;54230;52.402;6.276;2022-11-27T23:50:00;12.3;;;6.6;;
67344;SDS011;54230;52.402;6.276;2022-11-27T23:55:00;11.1;;;6.5;;
